Time;durP1;ratioP1;P1;durP2;ratioP2;P2;SDS_P1;SDS_P2;PMS_P1;PMS_P2;Temp;Humidity;BMP_temperature;BMP_pressure;BME280_temperature;BME280_humidity;BME280_pressure;Samples;Min_cycle;Max_cycle;Signal;HPM_P1;HPM_P2
2022/05/02 00:01:21;;;;;;;4.50;2.40;;;15.80;33.60;;;;;;5073276;28;20177;-32
2022/05/02 00:03:46;;;;;;;3.50;2.07;;;15.70;34.20;;;;;;5073577;28;20205;-32
2022/05/02 00:06:12;;;;;;;3.90;3.50;;;15.70;34.10;;;;;;5073515;28;20220;-32
2022/05/02 00:08:38;;;;;;;2.90;2.03;;;15.50;34.30;;;;;;5073557;28;20175;-32
2022/05/02 00:11:03;;;;;;;3.13;2.00;;;15.50;34.70;;;;;;5073013;28;20183;-32
2022/05/02 00:13:29;;;;;;;4.23;1.97;;;15.50;34.30;;;;;;5073123;28;20208;-32
2022/05/02 00:15:55;;;;;;;3.40;2.37;;;15.50;34.20;;;;;;5073073;28;20201;-32
2022/05/02 00:18:21;;;;;;;3.07;1.90;;;15.50;34.10;;;;;;5073352;28;20183;-32
2022/05/02 00:20:46;;;;;;;4.03;3.33;;;15.40;34.20;;;;;;5073106;28;20169;-32
2022/05/02 00:23:12;;;;;;;3.73;1.97;;;15.40;34.80;;;;;;5073188;28;20173;-32
2022/05/02 00:25:38;;;;;;;6.17;2.60;;;15.30;35.20;;;;;;5072883;28;20239;-32
2022/05/02 00:28:05;;;;;;;3.20;1.90;;;15.20;35.40;;;;;;5073003;28;20514;-32
2022/05/02 00:30:31;;;;;;;5.22;2.70;;;15.10;35.40;;;;;;5072635;28;20172;-32
2022/05/02 00:32:57;;;;;;;2.65;2.20;;;15.10;35.40;;;;;;5072859;28;20270;-32
2022/05/02 00:35:24;;;;;;;4.55;2.50;;;15.00;35.20;;;;;;5072653;28;20204;-32
2022/05/02 00:37:50;;;;;;;3.83;2.70;;;15.00;34.70;;;;;;5072900;28;20169;-32
2022/05/02 00:40:17;;;;;;;4.57;2.80;;;15.00;34.80;;;;;;5072775;28;20191;-32
2022/05/02 00:42:44;;;;;;;3.65;1.88;;;14.90;34.50;;;;;;5072587;28;20172;-32
2022/05/02 00:45:11;;;;;;;3.35;2.30;;;14.90;34.70;;;;;;5071662;28;20722;-32
2022/05/02 00:47:37;;;;;;;3.50;2.75;;;14.80;34.70;;;;;;5072863;28;20207;-32
2022/05/02 00:50:05;;;;;;;3.72;1.80;;;14.80;34.40;;;;;;5072695;28;20195;-32
2022/05/02 00:52:31;;;;;;;3.20;2.20;;;14.80;34.20;;;;;;5072853;28;20172;-32
2022/05/02 00:54:57;;;;;;;3.80;2.70;;;14.70;34.20;;;;;;5072555;28;20672;-32
2022/05/02 00:57:23;;;;;;;6.73;2.63;;;14.60;35.00;;;;;;5072305;28;20865;-32
2022/05/02 00:59:48;;;;;;;3.13;2.03;;;14.60;35.20;;;;;;5072571;28;20759;-32
2022/05/02 01:02:15;;;;;;;7.50;2.57;;;14.50;35.40;;;;;;5072361;28;20659;-32
2022/05/02 01:04:42;;;;;;;3.05;2.30;;;14.50;34.90;;;;;;5072341;28;20200;-32
2022/05/02 01:07:19;;;;;;;3.08;2.13;;;14.50;35.50;;;;;;5072736;28;20192;-32
2022/05/02 01:09:49;;;;;;;8.35;2.30;;;14.40;35.30;;;;;;5072371;28;20173;-32
2022/05/02 01:12:15;;;;;;;3.40;2.00;;;14.40;35.00;;;;;;5072017;28;20230;-32
2022/05/02 01:14:42;;;;;;;4.03;2.80;;;14.40;35.80;;;;;;5072358;28;20192;-32
2022/05/02 01:17:09;;;;;;;4.50;2.85;;;14.30;35.40;;;;;;5072435;28;20196;-32
2022/05/02 01:19:35;;;;;;;2.75;2.10;;;14.30;36.00;;;;;;5072355;28;20180;-32
2022/05/02 01:22:01;;;;;;;4.00;2.67;;;14.20;36.30;;;;;;5072228;28;20628;-32
2022/05/02 01:24:34;;;;;;;4.63;2.67;;;14.10;36.00;;;;;;5072076;28;20443;-32
2022/05/02 01:27:00;;;;;;;4.07;2.25;;;14.10;35.90;;;;;;5072710;28;20184;-32
2022/05/02 01:29:26;;;;;;;3.47;2.50;;;14.10;35.90;;;;;;5072043;28;20203;-32
2022/05/02 01:31:55;;;;;;;4.07;3.13;;;14.10;35.70;;;;;;5071895;28;20169;-32
2022/05/02 01:34:21;;;;;;;3.35;2.50;;;14.10;35.90;;;;;;5071961;28;20708;-32
2022/05/02 01:36:47;;;;;;;3.97;2.77;;;14.10;35.90;;;;;;5071977;28;20212;-32
2022/05/02 01:39:13;;;;;;;3.00;2.33;;;14.00;36.00;;;;;;5072123;28;20771;-32
2022/05/02 01:41:38;;;;;;;2.53;2.13;;;14.00;35.80;;;;;;5071707;28;20417;-32
2022/05/02 01:44:04;;;;;;;2.90;2.60;;;14.00;36.40;;;;;;5071961;28;20196;-32
2022/05/02 01:46:30;;;;;;;6.60;2.07;;;14.00;36.90;;;;;;5071947;28;20261;-32
2022/05/02 01:48:59;;;;;;;3.57;2.07;;;13.90;37.00;;;;;;5071809;28;20450;-32
2022/05/02 01:51:25;;;;;;;5.30;2.65;;;13.80;36.80;;;;;;5071600;28;20188;-32
2022/05/02 01:53:51;;;;;;;4.70;2.90;;;13.80;36.80;;;;;;5071750;28;20176;-32
2022/05/02 01:56:16;;;;;;;3.63;2.20;;;13.70;37.20;;;;;;5072645;28;20204;-32
2022/05/02 01:58:42;;;;;;;4.03;2.63;;;13.70;37.00;;;;;;5075819;28;20855;-32
2022/05/02 02:01:08;;;;;;;3.40;2.07;;;13.70;37.10;;;;;;5075626;28;20174;-32
2022/05/02 02:03:34;;;;;;;2.63;2.20;;;13.80;36.50;;;;;;5075693;28;20645;-32
2022/05/02 02:06:00;;;;;;;4.27;2.20;;;13.90;36.60;;;;;;5075564;28;20837;-32
2022/05/02 02:08:31;;;;;;;3.13;2.20;;;13.90;36.40;;;;;;5075851;28;20283;-32
2022/05/02 02:10:59;;;;;;;4.72;2.92;;;14.00;36.00;;;;;;5075528;28;20176;-32
2022/05/02 02:13:25;;;;;;;4.18;2.33;;;14.00;35.80;;;;;;5075631;28;20197;-32
2022/05/02 02:15:51;;;;;;;3.23;2.20;;;14.10;35.90;;;;;;5075373;28;20703;-32
2022/05/02 02:18:17;;;;;;;4.30;2.77;;;14.10;36.20;;;;;;5075484;28;20409;-32
2022/05/02 02:20:45;;;;;;;2.93;2.47;;;14.10;36.30;;;;;;5075044;28;20493;-32
2022/05/02 02:23:12;;;;;;;5.22;2.63;;;14.10;36.30;;;;;;5075373;28;20417;-32
2022/05/02 02:25:38;;;;;;;3.03;2.72;;;14.10;36.40;;;;;;5075104;28;20765;-32
2022/05/02 02:28:05;;;;;;;5.37;2.83;;;14.10;36.40;;;;;;5075211;28;20177;-32
2022/05/02 02:30:31;;;;;;;4.50;2.50;;;14.20;36.70;;;;;;5075034;28;20510;-32
2022/05/02 02:32:57;;;;;;;4.77;2.67;;;14.10;36.50;;;;;;5075237;28;20199;-32
2022/05/02 02:35:23;;;;;;;4.15;2.40;;;14.20;36.90;;;;;;5074917;28;20449;-32
2022/05/02 02:37:50;;;;;;;3.25;1.95;;;14.10;36.30;;;;;;5075126;28;20752;-32
2022/05/02 02:40:16;;;;;;;3.67;2.88;;;14.10;36.60;;;;;;5075169;28;20258;-32
2022/05/02 02:42:42;;;;;;;3.72;2.97;;;14.10;36.10;;;;;;5074937;28;20183;-32
2022/05/02 02:45:08;;;;;;;3.60;2.23;;;14.20;36.00;;;;;;5074910;28;20618;-32
2022/05/02 02:47:35;;;;;;;4.22;2.60;;;14.20;36.20;;;;;;5074903;28;20403;-32
2022/05/02 02:50:00;;;;;;;4.38;3.10;;;14.20;36.10;;;;;;5074767;28;20184;-32
2022/05/02 02:52:26;;;;;;;4.13;2.80;;;14.20;35.80;;;;;;5074821;28;20172;-32
2022/05/02 02:54:52;;;;;;;3.13;1.90;;;14.20;36.80;;;;;;5074949;28;20200;-32
2022/05/02 02:57:17;;;;;;;3.20;2.13;;;14.10;36.70;;;;;;5074644;28;20191;-32
2022/05/02 02:59:43;;;;;;;3.33;2.40;;;14.10;36.80;;;;;;5074777;28;20198;-32
2022/05/02 03:02:09;;;;;;;6.47;3.03;;;14.00;37.00;;;;;;5074426;28;20238;-32
2022/05/02 03:07:22;;;;;;;4.20;2.03;;;13.90;36.90;;;;;;5074524;28;20176;-32
2022/05/02 03:09:48;;;;;;;3.45;2.47;;;13.80;36.80;;;;;;5074347;28;20579;-32
2022/05/02 03:12:13;;;;;;;3.83;2.37;;;13.90;37.00;;;;;;5074259;28;20165;-32
2022/05/02 03:14:39;;;;;;;3.57;2.27;;;13.90;37.40;;;;;;5074460;28;20199;-32
2022/05/02 03:17:05;;;;;;;4.83;2.80;;;13.90;37.50;;;;;;5074620;28;20553;-32
2022/05/02 03:19:31;;;;;;;4.32;2.80;;;13.90;37.00;;;;;;5074488;28;20176;-32
2022/05/02 03:21:57;;;;;;;9.00;4.00;;;13.90;37.00;;;;;;5074350;28;20229;-32
2022/05/02 03:24:22;;;;;;;4.93;2.60;;;13.90;36.50;;;;;;5074052;28;20273;-32
2022/05/02 03:26:48;;;;;;;7.37;3.30;;;13.90;36.90;;;;;;5074190;28;20411;-32
2022/05/02 03:29:14;;;;;;;3.30;2.63;;;13.80;36.90;;;;;;5074165;28;20192;-32
2022/05/02 03:31:40;;;;;;;5.23;2.63;;;13.80;36.70;;;;;;5073888;28;20172;-31
2022/05/02 03:34:05;;;;;;;4.23;3.07;;;13.80;36.50;;;;;;5074144;28;20168;-32
2022/05/02 03:36:31;;;;;;;3.17;2.27;;;13.70;37.00;;;;;;5073948;28;20192;-32
2022/05/02 03:38:57;;;;;;;5.03;2.60;;;13.80;37.20;;;;;;5074153;28;20172;-32
2022/05/02 03:41:22;;;;;;;5.03;2.77;;;13.70;37.30;;;;;;5055732;28;20207;-32
2022/05/02 03:43:48;;;;;;;4.30;2.47;;;13.70;37.80;;;;;;5073851;28;20208;-32
2022/05/02 03:46:14;;;;;;;2.93;2.23;;;13.70;37.90;;;;;;5073765;28;20189;-32
2022/05/02 03:48:39;;;;;;;4.27;2.60;;;13.70;37.50;;;;;;5055896;28;20183;-32
2022/05/02 03:51:05;;;;;;;4.47;2.50;;;13.70;37.70;;;;;;5073625;28;20169;-32
2022/05/02 03:53:31;;;;;;;3.27;2.07;;;13.70;37.90;;;;;;5073637;28;20176;-32
2022/05/02 03:55:57;;;;;;;3.53;2.53;;;13.60;38.10;;;;;;5073595;28;20509;-32
2022/05/02 03:58:23;;;;;;;3.40;1.97;;;13.60;37.80;;;;;;5073533;28;20898;-32
2022/05/02 04:00:48;;;;;;;5.77;2.40;;;13.60;38.70;;;;;;5073295;28;20183;-32
2022/05/02 04:03:14;;;;;;;8.20;3.33;;;13.60;38.10;;;;;;5073690;28;20430;-32
2022/05/02 04:05:40;;;;;;;7.23;5.10;;;13.60;38.00;;;;;;5073273;28;20204;-32
2022/05/02 04:08:06;;;;;;;5.30;3.30;;;13.60;38.30;;;;;;5073558;28;20656;-32
2022/05/02 04:10:31;;;;;;;5.47;4.43;;;13.60;38.10;;;;;;5073070;28;20173;-32
2022/05/02 04:12:57;;;;;;;6.07;2.93;;;13.60;38.00;;;;;;5073225;28;20937;-32
2022/05/02 04:15:23;;;;;;;11.43;3.50;;;13.60;38.40;;;;;;5073184;28;20188;-32
2022/05/02 04:17:48;;;;;;;4.53;3.50;;;13.60;39.30;;;;;;5073364;28;20180;-32
2022/05/02 04:20:14;;;;;;;4.03;2.93;;;13.60;38.60;;;;;;5073167;28;20177;-32
2022/05/02 04:22:41;;;;;;;6.20;3.03;;;13.60;38.60;;;;;;5073017;28;20177;-32
2022/05/02 04:25:07;;;;;;;3.85;2.70;;;13.70;39.10;;;;;;5072634;28;20212;-32
2022/05/02 04:27:33;;;;;;;8.82;3.20;;;13.70;39.60;;;;;;5072855;28;20176;-32
2022/05/02 04:29:59;;;;;;;3.55;2.85;;;13.70;39.20;;;;;;5072941;28;20168;-32
2022/05/02 04:32:25;;;;;;;4.67;2.80;;;13.70;38.80;;;;;;5072744;28;20539;-32
2022/05/02 04:34:54;;;;;;;3.97;2.35;;;13.80;39.10;;;;;;5072932;28;20453;-32
2022/05/02 04:37:19;;;;;;;3.90;2.53;;;13.90;39.40;;;;;;5072795;28;20230;-32
2022/05/02 04:39:45;;;;;;;5.03;3.60;;;13.90;38.90;;;;;;5072801;28;20563;-32
2022/05/02 04:42:11;;;;;;;4.20;2.90;;;14.00;39.10;;;;;;5072267;28;20263;-32
2022/05/02 04:44:36;;;;;;;4.57;3.03;;;14.00;38.80;;;;;;5072453;28;20218;-32
2022/05/02 04:47:03;;;;;;;3.97;2.97;;;14.00;38.50;;;;;;5072872;28;20172;-32
2022/05/02 04:49:28;;;;;;;6.50;2.95;;;14.10;39.00;;;;;;5072651;28;20169;-32
2022/05/02 04:51:54;;;;;;;9.80;4.10;;;14.10;39.00;;;;;;5072892;28;20175;-32
2022/05/02 04:54:20;;;;;;;5.10;3.33;;;14.20;39.20;;;;;;5072393;28;20565;-31
2022/05/02 04:56:45;;;;;;;5.77;3.53;;;14.20;38.90;;;;;;5072405;28;20176;-32
2022/05/02 04:59:11;;;;;;;5.40;2.90;;;14.30;38.80;;;;;;5072374;28;20301;-32
2022/05/02 05:01:37;;;;;;;5.50;3.10;;;14.40;38.60;;;;;;5072433;28;20176;-32
2022/05/02 05:04:02;;;;;;;4.30;3.90;;;14.40;38.40;;;;;;5072045;28;20192;-32
2022/05/02 05:06:28;;;;;;;4.93;3.50;;;14.50;38.20;;;;;;5072267;28;20268;-32
2022/05/02 05:08:54;;;;;;;5.23;3.47;;;14.50;38.10;;;;;;5072186;28;20411;-32
2022/05/02 05:11:28;;;;;;;4.70;3.53;;;14.60;38.10;;;;;;5072046;28;20407;-32
2022/05/02 05:17:47;;;;;;;5.55;3.55;;;14.70;37.90;;;;;;5052302;28;20212;-32
2022/05/02 05:20:15;;;;;;;6.75;3.92;;;14.70;37.80;;;;;;5073093;28;20169;-32
2022/05/02 05:23:01;;;;;;;7.15;3.70;;;14.70;37.60;;;;;;5072652;28;20185;-32
2022/05/02 05:25:38;;;;;;;10.35;4.18;;;14.80;37.70;;;;;;5072010;28;20691;-32
2022/05/02 05:28:22;;;;;;;4.50;3.35;;;14.80;37.50;;;;;;5071987;28;20267;-32
2022/05/02 05:30:52;;;;;;;3.58;2.92;;;14.90;37.30;;;;;;5071375;28;20160;-32
2022/05/02 05:33:38;;;;;;;5.50;4.30;;;15.00;37.30;;;;;;5072075;28;20177;-32
2022/05/02 05:36:34;;;;;;;9.65;3.65;;;15.10;37.30;;;;;;5072021;28;20180;-32
2022/05/02 05:39:04;;;;;;;3.65;2.88;;;15.20;36.90;;;;;;5072079;28;20612;-32
2022/05/02 05:42:04;;;;;;;17.23;3.65;;;15.20;36.50;;;;;;5071628;28;20599;-32
2022/05/02 05:44:47;;;;;;;5.72;3.58;;;15.20;36.70;;;;;;5071762;28;20192;-32
2022/05/02 05:47:48;;;;;;;4.90;3.35;;;15.30;36.70;;;;;;5071833;28;20260;-32
2022/05/02 05:50:29;;;;;;;6.45;3.75;;;15.40;36.70;;;;;;5071872;28;20599;-33
2022/05/02 05:53:04;;;;;;;8.60;4.28;;;15.50;36.80;;;;;;5071863;28;20207;-32
2022/05/02 05:55:51;;;;;;;5.50;3.20;;;15.70;36.60;;;;;;5071757;28;20181;-32
2022/05/02 05:58:45;;;;;;;6.70;3.28;;;15.90;36.40;;;;;;5071935;28;20172;-33
2022/05/02 06:01:14;;;;;;;4.85;3.30;;;16.00;36.00;;;;;;5071552;28;20647;-33
2022/05/02 06:03:58;;;;;;;3.17;2.75;;;16.10;36.40;;;;;;5071414;28;20544;-33
2022/05/02 06:06:27;;;;;;;4.40;3.15;;;16.30;35.80;;;;;;5071738;28;20583;-33
2022/05/02 06:08:54;;;;;;;6.32;3.60;;;16.40;35.50;;;;;;5071660;28;20778;-33
2022/05/02 06:11:21;;;;;;;4.93;3.25;;;16.50;35.40;;;;;;5071349;28;20189;-33
2022/05/02 06:13:51;;;;;;;3.67;2.70;;;16.60;35.20;;;;;;5071597;28;20180;-33
2022/05/02 06:19:05;;;;;;;6.28;3.45;;;16.80;34.70;;;;;;5071857;28;20241;-33
2022/05/02 06:21:32;;;;;;;4.03;3.10;;;16.90;34.60;;;;;;5071647;28;20575;-33
2022/05/02 06:24:01;;;;;;;4.75;3.30;;;17.00;34.20;;;;;;5071894;28;20215;-33
2022/05/02 06:26:27;;;;;;;4.97;3.78;;;17.00;33.80;;;;;;5071671;28;20204;-33
2022/05/02 06:28:53;;;;;;;3.70;3.00;;;17.00;33.10;;;;;;5071841;28;20266;-33
2022/05/02 06:31:22;;;;;;;4.23;3.23;;;17.00;33.30;;;;;;5071334;28;20255;-33
2022/05/02 06:33:50;;;;;;;5.13;3.60;;;17.00;33.10;;;;;;5071509;28;20282;-33
2022/05/02 06:36:50;;;;;;;4.75;3.30;;;16.90;32.90;;;;;;5053396;28;20208;-33
2022/05/02 06:39:34;;;;;;;4.75;3.38;;;17.00;33.30;;;;;;5071997;28;20176;-33
2022/05/02 06:42:25;;;;;;;7.38;4.75;;;17.10;32.90;;;;;;5071055;28;20184;-33
2022/05/02 06:44:54;;;;;;;4.97;3.30;;;17.10;33.10;;;;;;5058775;28;20610;-33
2022/05/02 06:47:31;;;;;;;5.35;4.43;;;17.20;32.50;;;;;;5074842;28;20179;-33
2022/05/02 06:50:02;;;;;;;6.35;3.80;;;17.20;32.40;;;;;;5074908;28;20217;-33
2022/05/02 06:52:44;;;;;;;5.10;3.72;;;17.30;32.50;;;;;;5074734;28;20185;-33
2022/05/02 06:55:13;;;;;;;6.35;3.45;;;17.30;32.30;;;;;;5074784;28;20189;-33
2022/05/02 06:58:08;;;;;;;4.00;2.40;;;17.40;32.50;;;;;;5074693;28;20172;-33
2022/05/02 07:00:47;;;;;;;5.50;3.80;;;17.50;32.80;;;;;;5074505;28;20663;-33
2022/05/02 07:03:14;;;;;;;7.20;3.15;;;17.70;32.30;;;;;;5074594;28;20660;-33
2022/05/02 07:06:08;;;;;;;3.75;3.35;;;17.80;32.70;;;;;;5074454;28;20219;-33
2022/05/02 07:08:58;;;;;;;6.78;3.55;;;18.10;32.80;;;;;;5074602;28;20520;-33
2022/05/02 07:11:37;;;;;;;5.45;4.22;;;18.20;31.50;;;;;;5074236;28;20184;-33
2022/05/02 07:14:16;;;;;;;4.15;2.80;;;18.30;32.20;;;;;;5074637;28;20290;-33
2022/05/02 07:16:48;;;;;;;5.53;3.42;;;18.50;32.40;;;;;;5074843;28;20185;-33
2022/05/02 07:19:23;;;;;;;7.03;3.92;;;18.70;32.40;;;;;;5074514;28;20184;-33
2022/05/02 07:21:51;;;;;;;6.28;3.85;;;18.80;31.60;;;;;;5074185;28;20176;-33
2022/05/02 07:24:20;;;;;;;5.45;4.47;;;19.00;31.40;;;;;;5073987;28;20203;-33
2022/05/02 07:27:15;;;;;;;5.82;4.32;;;19.10;30.50;;;;;;5074125;28;20192;-33
2022/05/02 07:29:44;;;;;;;5.68;3.65;;;19.10;30.40;;;;;;5074344;28;20175;-33
2022/05/02 07:32:11;;;;;;;5.00;3.83;;;19.20;30.10;;;;;;5073917;28;20181;-33
2022/05/02 07:34:38;;;;;;;5.35;3.75;;;19.20;30.10;;;;;;5074002;28;20200;-33
2022/05/02 07:37:05;;;;;;;8.05;3.95;;;19.30;30.30;;;;;;5073831;28;20183;-33
2022/05/02 07:39:35;;;;;;;5.68;3.63;;;19.30;30.40;;;;;;5073900;28;20199;-33
2022/05/02 07:42:04;;;;;;;5.78;3.25;;;19.30;29.50;;;;;;5073877;28;20280;-33
2022/05/02 07:44:34;;;;;;;8.20;4.20;;;19.20;30.00;;;;;;5073747;28;20208;-33
2022/05/02 07:47:04;;;;;;;6.88;3.45;;;19.20;29.80;;;;;;5074072;28;20176;-33
2022/05/02 07:49:32;;;;;;;3.85;3.25;;;19.20;29.80;;;;;;5073873;28;20208;-33
2022/05/02 07:52:00;;;;;;;5.75;3.67;;;19.10;29.70;;;;;;5073322;28;20698;-33
2022/05/02 07:54:29;;;;;;;4.05;3.20;;;19.20;30.40;;;;;;5073478;28;20184;-33
2022/05/02 07:57:01;;;;;;;4.28;3.38;;;19.30;30.30;;;;;;5073612;28;20314;-33
2022/05/02 07:59:33;;;;;;;6.32;4.00;;;19.50;30.50;;;;;;5073510;28;20267;-33
2022/05/02 08:01:59;;;;;;;4.78;4.20;;;19.60;29.20;;;;;;5073314;28;20177;-33
2022/05/02 08:04:25;;;;;;;5.27;3.30;;;19.70;29.90;;;;;;5073264;28;20204;-33
2022/05/02 08:07:12;;;;;;;8.70;4.20;;;19.90;29.90;;;;;;5073458;28;20493;-33
2022/05/02 08:10:22;;;;;;;4.57;3.20;;;20.00;28.20;;;;;;5073421;28;20194;-33
2022/05/02 08:12:55;;;;;;;5.07;3.85;;;20.10;29.40;;;;;;5069168;28;20188;-33
2022/05/02 08:15:47;;;;;;;4.20;3.50;;;20.20;28.90;;;;;;5073352;28;20279;-33
2022/05/02 08:18:55;;;;;;;7.47;4.13;;;20.30;29.50;;;;;;5073204;28;20175;-33
2022/05/02 08:21:32;;;;;;;6.72;4.20;;;20.50;29.00;;;;;;5072968;28;20663;-33
2022/05/02 08:27:15;;;;;;;5.50;4.20;;;20.90;29.20;;;;;;5073460;28;20188;-33
2022/05/02 08:30:02;;;;;;;5.22;3.42;;;21.00;28.10;;;;;;5073277;28;20176;-33
2022/05/02 08:32:53;;;;;;;5.95;3.88;;;21.10;28.50;;;;;;5072771;28;20161;-33
2022/05/02 08:35:48;;;;;;;6.05;3.45;;;21.30;29.40;;;;;;5073155;28;20253;-33
2022/05/02 08:38:35;;;;;;;4.53;2.90;;;21.50;28.60;;;;;;5071399;28;20203;-33
2022/05/02 08:41:28;;;;;;;9.53;4.53;;;21.70;28.90;;;;;;5072489;28;20675;-33
2022/05/02 08:44:31;;;;;;;6.20;3.77;;;21.80;27.50;;;;;;5072595;28;20429;-33
2022/05/02 08:47:23;;;;;;;3.83;3.35;;;21.90;28.60;;;;;;5095055;22;20482;-35
2022/05/02 08:50:28;;;;;;;4.10;3.33;;;22.20;28.10;;;;;;5092897;28;20334;-35
2022/05/02 08:53:40;;;;;;;6.53;3.60;;;22.50;27.10;;;;;;5092997;28;20397;-35
2022/05/02 08:56:23;;;;;;;5.50;3.50;;;22.70;26.90;;;;;;5092667;28;20459;-36
2022/05/02 08:58:52;;;;;;;4.93;3.30;;;23.00;25.30;;;;;;5092746;28;20441;-36
2022/05/02 09:01:21;;;;;;;4.50;3.30;;;23.20;24.30;;;;;;5092473;28;20429;-36
2022/05/02 09:03:46;;;;;;;4.30;2.73;;;23.30;24.90;;;;;;5092546;28;20928;-36
2022/05/02 09:06:18;;;;;;;5.00;3.23;;;23.40;24.40;;;;;;5091802;28;20454;-36
2022/05/02 09:09:16;;;;;;;4.67;3.43;;;23.70;25.40;;;;;;5092476;28;20168;-36
2022/05/02 09:12:03;;;;;;;7.20;3.37;;;23.90;25.90;;;;;;5068155;28;20421;-36
2022/05/02 09:14:57;;;;;;;8.00;3.37;;;24.10;25.90;;;;;;5092541;28;20398;-36
2022/05/02 09:17:41;;;;;;;6.57;2.70;;;24.40;26.00;;;;;;5092296;28;20847;-36
2022/05/02 09:20:25;;;;;;;5.40;4.10;;;24.60;25.40;;;;;;5092323;28;20485;-36
2022/05/02 09:23:21;;;;;;;3.90;3.00;;;24.80;25.80;;;;;;5092394;28;20455;-36
2022/05/02 09:26:02;;;;;;;4.93;3.07;;;25.00;25.40;;;;;;5092077;28;20457;-36
2022/05/02 09:28:36;;;;;;;4.03;3.00;;;25.10;23.20;;;;;;5092463;28;20441;-36
2022/05/02 09:31:17;;;;;;;5.20;3.23;;;25.30;23.90;;;;;;5092205;28;20467;-36
2022/05/02 09:33:47;;;;;;;5.23;3.00;;;25.30;22.40;;;;;;5092104;28;20398;-36
2022/05/02 09:36:40;;;;;;;5.43;3.77;;;25.40;22.70;;;;;;5092230;28;20429;-36
2022/05/02 09:39:20;;;;;;;4.63;3.40;;;25.60;23.20;;;;;;5092225;28;20780;-36
2022/05/02 09:42:01;;;;;;;5.57;3.13;;;25.70;23.70;;;;;;5092059;28;20398;-36
2022/05/02 09:51:30;;;;;;;3.77;3.10;;;26.10;23.00;;;;;;5091919;28;20440;-36
2022/05/02 09:54:08;;;;;;;4.77;3.67;;;26.20;23.10;;;;;;5092163;28;20409;-36
2022/05/02 09:56:45;;;;;;;5.30;3.80;;;26.20;23.20;;;;;;5091873;28;20980;-35
2022/05/02 09:59:24;;;;;;;6.10;3.83;;;26.30;20.30;;;;;;5092209;28;20478;-36
2022/05/02 10:02:05;;;;;;;4.10;2.57;;;26.30;21.50;;;;;;5091789;28;20409;-36
2022/05/02 10:04:59;;;;;;;4.70;3.00;;;26.30;22.30;;;;;;5091814;28;20983;-36
2022/05/02 10:07:25;;;;;;;3.70;2.83;;;26.40;21.50;;;;;;5092295;28;20433;-36
2022/05/02 10:10:18;;;;;;;3.37;2.67;;;26.50;21.30;;;;;;5092105;28;20406;-36
2022/05/02 10:12:48;;;;;;;4.23;2.90;;;26.60;21.60;;;;;;5091655;28;20406;-36
2022/05/02 10:15:39;;;;;;;4.30;3.10;;;26.70;21.50;;;;;;5091699;28;20467;-37
2022/05/02 10:18:11;;;;;;;5.43;3.53;;;26.80;19.50;;;;;;5093951;28;20441;-36
2022/05/02 10:20:48;;;;;;;5.60;3.20;;;26.80;19.80;;;;;;5095539;28;20837;-37
2022/05/02 10:23:17;;;;;;;3.47;2.83;;;26.80;20.90;;;;;;5095643;28;20929;-36
2022/05/02 10:26:16;;;;;;;4.47;3.37;;;26.90;21.30;;;;;;5095295;28;20456;-36
2022/05/02 10:29:31;;;;;;;3.90;3.20;;;27.10;21.00;;;;;;5095843;28;20402;-36
2022/05/02 10:32:31;;;;;;;3.43;2.57;;;27.20;20.00;;;;;;5095259;28;20924;-36
2022/05/02 10:35:00;;;;;;;4.80;3.27;;;27.40;19.30;;;;;;5092234;28;20765;-36
2022/05/02 10:37:35;;;;;;;3.77;2.70;;;27.30;19.50;;;;;;5095327;28;20921;-36
2022/05/02 10:40:15;;;;;;;5.33;3.27;;;27.20;18.60;;;;;;5095425;28;20420;-36
2022/05/02 10:42:50;;;;;;;5.30;2.93;;;27.30;20.50;;;;;;5095180;28;20865;-36
2022/05/02 10:45:16;;;;;;;4.80;3.70;;;27.40;19.80;;;;;;5095347;28;20506;-36
2022/05/02 10:47:52;;;;;;;4.53;3.37;;;27.40;18.50;;;;;;5095081;28;20449;-36
2022/05/02 10:50:31;;;;;;;4.60;3.07;;;27.30;18.60;;;;;;5095176;28;20406;-36
2022/05/02 10:53:27;;;;;;;3.23;2.67;;;27.20;20.50;;;;;;5095080;28;20409;-35
2022/05/02 10:56:27;;;;;;;4.30;3.10;;;27.40;19.80;;;;;;5095191;28;20493;-36
2022/05/02 10:58:56;;;;;;;4.13;3.37;;;27.60;20.90;;;;;;5095105;28;20417;-36
2022/05/02 11:01:52;;;;;;;3.90;2.77;;;27.60;18.70;;;;;;5094673;28;20405;-36
2022/05/02 11:05:03;;;;;;;6.63;3.07;;;27.70;20.10;;;;;;5094813;28;20805;-36
2022/05/02 11:07:39;;;;;;;15.10;4.37;;;27.80;20.80;;;;;;5032114;28;20437;-36
2022/05/02 11:10:11;;;;;;;3.77;2.90;;;27.90;20.10;;;;;;5086843;28;20414;-35
2022/05/02 11:13:00;;;;;;;5.10;2.80;;;28.00;21.10;;;;;;5094840;28;20492;-37
2022/05/02 11:15:37;;;;;;;3.47;2.67;;;28.20;21.00;;;;;;5083712;28;20425;-36
2022/05/02 11:20:41;;;;;;;3.80;2.47;;;28.30;21.20;;;;;;5094631;28;20405;-36
2022/05/02 11:21:12;;;;;;;5.93;3.60;;;28.50;20.40;;;;;;5094271;28;20527;-36
2022/05/02 11:24:05;;;;;;;3.47;3.00;;;28.50;20.70;;;;;;5094776;28;20402;-36
2022/05/02 11:26:48;;;;;;;4.60;2.70;;;28.50;20.70;;;;;;5094696;28;20754;-37
2022/05/02 11:29:35;;;;;;;5.30;3.23;;;28.60;21.10;;;;;;5094074;28;20394;-36
2022/05/02 11:32:04;;;;;;;5.60;3.57;;;28.70;21.10;;;;;;5094270;28;20477;-36
2022/05/02 11:34:49;;;;;;;3.53;2.87;;;28.70;20.80;;;;;;5094264;28;20946;-36
2022/05/02 11:37:42;;;;;;;3.63;3.13;;;28.80;20.70;;;;;;5094385;28;20421;-36
2022/05/02 11:40:12;;;;;;;4.40;3.10;;;28.90;20.80;;;;;;5094365;28;20426;-36
2022/05/02 11:42:47;;;;;;;3.47;2.63;;;29.00;21.00;;;;;;5094054;28;20402;-37
2022/05/02 11:45:17;;;;;;;6.37;2.80;;;29.10;20.70;;;;;;5094016;28;20530;-37
2022/05/02 11:47:53;;;;;;;3.63;2.47;;;29.20;19.90;;;;;;5093847;28;20477;-36
2022/05/02 11:50:22;;;;;;;3.77;2.90;;;29.20;20.50;;;;;;5094127;28;20485;-36
2022/05/02 11:52:55;;;;;;;6.20;4.07;;;29.30;20.20;;;;;;5093917;28;20409;-37
2022/05/02 11:55:30;;;;;;;6.53;4.10;;;29.40;20.40;;;;;;5093898;28;20402;-36
2022/05/02 11:58:08;;;;;;;3.30;3.00;;;29.40;20.30;;;;;;5094056;28;20486;-36
2022/05/02 12:00:36;;;;;;;5.47;4.17;;;29.50;20.40;;;;;;5093790;28;20475;-36
2022/05/02 12:03:02;;;;;;;4.40;2.83;;;29.50;20.00;;;;;;5093928;28;20494;-36
2022/05/02 12:05:52;;;;;;;3.90;3.00;;;29.60;20.20;;;;;;5093624;28;20545;-36
2022/05/02 12:08:48;;;;;;;3.33;2.97;;;29.70;20.00;;;;;;5085356;28;20180;-36
2022/05/02 12:11:15;;;;;;;4.37;3.50;;;29.80;19.90;;;;;;5092054;28;20564;-36
2022/05/02 12:13:47;;;;;;;4.23;3.10;;;29.80;19.90;;;;;;5093650;28;20405;-36
2022/05/02 12:16:17;;;;;;;3.53;3.23;;;29.80;19.90;;;;;;5093353;28;20812;-36
2022/05/02 12:18:57;;;;;;;7.30;2.97;;;29.60;19.80;;;;;;5093604;28;20406;-36
2022/05/02 12:21:52;;;;;;;4.80;3.30;;;29.50;20.20;;;;;;5093207;28;20401;-36
2022/05/02 12:24:33;;;;;;;3.60;3.07;;;29.50;20.20;;;;;;5090147;28;20956;-37
2022/05/02 12:26:59;;;;;;;4.23;3.40;;;29.60;20.00;;;;;;5093580;28;20512;-36
2022/05/02 12:29:27;;;;;;;5.60;3.60;;;29.80;20.20;;;;;;5093359;28;20430;-36
2022/05/02 12:32:00;;;;;;;3.77;2.80;;;29.80;19.70;;;;;;5093174;28;20436;-36
2022/05/02 12:34:47;;;;;;;3.83;3.00;;;29.70;18.80;;;;;;5093244;28;20409;-36
2022/05/02 12:37:23;;;;;;;6.00;3.57;;;29.30;18.20;;;;;;5092998;28;20429;-36
2022/05/02 12:40:11;;;;;;;4.53;3.53;;;28.80;19.30;;;;;;5093364;28;20398;-36
2022/05/02 12:42:41;;;;;;;3.83;2.77;;;28.50;19.80;;;;;;5092134;28;20406;-37
2022/05/02 12:45:13;;;;;;;5.13;3.20;;;28.30;20.20;;;;;;5092990;28;20454;-36
2022/05/02 12:47:51;;;;;;;4.30;3.20;;;28.10;20.40;;;;;;5092715;28;20454;-36
2022/05/02 12:50:23;;;;;;;3.90;2.93;;;28.00;20.60;;;;;;5092851;28;20408;-36
2022/05/02 12:52:51;;;;;;;3.87;3.20;;;27.90;20.50;;;;;;5092960;28;20462;-36
2022/05/02 12:55:19;;;;;;;4.63;2.87;;;27.80;20.10;;;;;;5092845;28;20414;-36
2022/05/02 13:00:39;;;;;;;5.27;4.30;;;27.70;19.70;;;;;;5092831;28;21004;-36
2022/05/02 13:03:10;;;;;;;4.10;3.30;;;27.70;19.90;;;;;;5092686;28;20800;-36
2022/05/02 13:05:41;;;;;;;4.07;3.60;;;27.60;20.40;;;;;;5092506;28;20446;-36
2022/05/02 13:08:09;;;;;;;6.13;3.70;;;27.50;20.80;;;;;;5092686;28;20402;-36
2022/05/02 13:10:35;;;;;;;5.23;3.63;;;27.40;20.80;;;;;;5092286;28;20426;-36
2022/05/02 13:13:06;;;;;;;5.13;3.60;;;27.30;20.90;;;;;;5092737;28;20429;-36
2022/05/02 13:15:44;;;;;;;3.53;2.70;;;27.20;20.90;;;;;;5092479;28;20271;-36
2022/05/02 13:18:13;;;;;;;4.00;3.17;;;27.10;21.00;;;;;;5092444;28;20406;-36
2022/05/02 13:20:40;;;;;;;4.30;3.67;;;26.90;20.60;;;;;;5092017;28;20938;-36
2022/05/02 13:23:13;;;;;;;4.07;3.60;;;26.80;20.80;;;;;;5092503;28;20777;-36
2022/05/02 13:25:57;;;;;;;7.30;3.80;;;26.70;21.00;;;;;;5092128;28;20591;-36
2022/05/02 13:28:26;;;;;;;6.07;3.83;;;26.60;20.80;;;;;;5092274;28;20490;-36
2022/05/02 13:30:57;;;;;;;4.03;3.37;;;26.60;21.10;;;;;;5092014;28;20959;-36
2022/05/02 13:33:39;;;;;;;6.07;3.97;;;26.60;21.50;;;;;;5092173;28;20401;-36
2022/05/02 13:36:07;;;;;;;7.23;3.33;;;26.70;21.80;;;;;;5092380;28;20418;-36
2022/05/02 13:39:05;;;;;;;3.77;2.70;;;26.80;21.80;;;;;;5092293;28;20413;-36
2022/05/02 13:41:48;;;;;;;5.23;3.63;;;27.00;21.30;;;;;;5091853;28;20899;-36